Okefenokee, Georgia
Current Conditions -  °F | °C
As of 9:35 AM on Friday 19 Dec 2014 (Local Time) from KAYS Reporting Station
Clear Clear  
Wind Chill: 55°   Ceiling: Unl
Heat Index: 55°   Visibility: 10mi
Dew Point: 42°   Wind: 3mph
Humidity: 62%   Direction: 30°NNE
Pressure: 30.17"   Gusts: NA
Location:  31.1455°N, 82.3853°W
Report Text: KAYS 191435Z AUTO 03003KT 10SM CLR 13/06 A3017 RMK AO2 T01260055
Loading
Personal Weather Stations






























Interactive Weather Map New forecast layout! Learn more

10-Day Weather Forecast

Advertisements
Track Severe Weather on mobile